createdAt,value
2018-04-24T00:00:59.326Z,1009.87
2018-04-24T00:01:59.346Z,1009.89
2018-04-24T00:02:59.369Z,1009.88
2018-04-24T00:03:59.593Z,1009.86
2018-04-24T00:04:59.413Z,1009.87
2018-04-24T00:05:59.485Z,1009.83
2018-04-24T00:06:59.559Z,1009.82
2018-04-24T00:07:59.481Z,1009.83
2018-04-24T00:08:59.502Z,1009.82
2018-04-24T00:09:59.525Z,1009.86
2018-04-24T00:10:59.546Z,1009.86
2018-04-24T00:11:59.572Z,1009.82
2018-04-24T00:12:59.595Z,1009.83
2018-04-24T00:13:59.613Z,1009.83
2018-04-24T00:14:59.635Z,1009.8
2018-04-24T00:15:59.658Z,1009.84
2018-04-24T00:16:59.681Z,1009.83
2018-04-24T00:17:59.703Z,1009.9
2018-04-24T00:18:59.724Z,1009.89
2018-04-24T00:19:59.748Z,1009.89
2018-04-24T00:20:59.769Z,1009.91
2018-04-24T00:21:59.791Z,1009.9
2018-04-24T00:23:59.836Z,1009.91
2018-04-24T00:24:59.859Z,1009.87
2018-04-24T00:25:59.938Z,1009.87
2018-04-24T00:26:59.902Z,1009.91
2018-04-24T00:27:59.924Z,1009.93
2018-04-24T00:28:59.947Z,1009.89
2018-04-24T00:29:59.968Z,1009.93
2018-04-24T00:30:59.990Z,1009.88
2018-04-24T00:32:00.013Z,1009.86
2018-04-24T00:33:00.037Z,1009.9
2018-04-24T00:34:00.058Z,1009.86
2018-04-24T00:35:00.079Z,1009.9
2018-04-24T00:36:00.101Z,1009.93
2018-04-24T00:37:00.127Z,1009.94
2018-04-24T00:38:00.144Z,1009.98
2018-04-24T00:40:00.190Z,1010.01
2018-04-24T00:41:00.212Z,1009.98
2018-04-24T00:42:00.234Z,1009.98
2018-04-24T00:43:00.256Z,1010
2018-04-24T00:44:00.276Z,1010.08
2018-04-24T00:45:00.298Z,1010.01
2018-04-24T00:46:00.321Z,1010.06
2018-04-24T00:47:00.343Z,1010.06
2018-04-24T00:48:00.365Z,1010.08
2018-04-24T00:49:00.386Z,1010.05
2018-04-24T00:50:00.408Z,1010.09
2018-04-24T00:51:00.431Z,1010.09
2018-04-24T00:52:00.452Z,1010.07
2018-04-24T00:53:00.475Z,1010.07
2018-04-24T00:54:00.497Z,1010.05
2018-04-24T00:56:00.540Z,1010.05
2018-04-24T00:57:00.562Z,1010.08
2018-04-24T00:58:00.585Z,1010.07
2018-04-24T00:59:00.605Z,1010.11
2018-04-24T01:00:00.627Z,1010.14
2018-04-24T01:01:00.651Z,1010.07
2018-04-24T01:02:00.673Z,1010
2018-04-24T01:03:00.693Z,1010.05
2018-04-24T01:04:00.715Z,1010.03
2018-04-24T01:05:00.737Z,1010.04
2018-04-24T01:06:00.758Z,1010.07
2018-04-24T01:07:00.780Z,1010.03
2018-04-24T01:08:00.804Z,1010.08
2018-04-24T01:09:00.826Z,1010.06
2018-04-24T01:10:00.927Z,1010.08
2018-04-24T01:12:00.891Z,1010.04
2018-04-24T01:13:00.918Z,1010.05
2018-04-24T01:14:00.943Z,1010.05
2018-04-24T01:15:00.955Z,1010.09
2018-04-24T01:16:00.981Z,1010.07
2018-04-24T01:17:00.998Z,1010.06
2018-04-24T01:18:01.020Z,1010.01
2018-04-24T01:19:01.042Z,1010.01
2018-04-24T01:20:01.070Z,1010
2018-04-24T01:21:01.087Z,1010
2018-04-24T01:22:01.108Z,1010.01
2018-04-24T01:23:01.129Z,1010.02
2018-04-24T01:24:01.151Z,1010.09
2018-04-24T01:25:01.174Z,1010.13
2018-04-24T01:27:01.218Z,1010.19
2018-04-24T01:28:01.239Z,1010.16
2018-04-24T01:29:01.261Z,1010.15
2018-04-24T01:30:01.284Z,1010.11
2018-04-24T01:31:01.306Z,1010.11
2018-04-24T01:32:01.326Z,1010.13
2018-04-24T01:33:01.348Z,1010.18
2018-04-24T01:34:01.370Z,1010.26
2018-04-24T01:35:01.392Z,1010.27
2018-04-24T01:36:01.413Z,1010.27
2018-04-24T01:37:01.436Z,1010.22
2018-04-24T01:38:01.458Z,1010.26
2018-04-24T01:39:01.480Z,1010.3
2018-04-24T01:40:01.500Z,1010.33
2018-04-24T01:41:01.522Z,1010.35
2018-04-24T01:42:01.543Z,1010.33
2018-04-24T01:43:01.566Z,1010.32
2018-04-24T01:44:01.587Z,1010.34
2018-04-24T01:45:01.609Z,1010.3
2018-04-24T01:46:01.630Z,1010.27
2018-04-24T01:47:01.651Z,1010.28
2018-04-24T01:48:01.674Z,1010.28
2018-04-24T01:49:01.695Z,1010.28
2018-04-24T01:50:01.717Z,1010.31
2018-04-24T01:51:01.737Z,1010.34
2018-04-24T01:52:01.759Z,1010.34
2018-04-24T01:53:01.781Z,1010.33
2018-04-24T01:54:01.803Z,1010.28
2018-04-24T01:55:01.823Z,1010.29
2018-04-24T01:56:01.970Z,1010.29
2018-04-24T01:57:01.867Z,1010.32
2018-04-24T01:59:01.909Z,1010.35
2018-04-24T02:00:01.932Z,1010.39
2018-04-24T02:01:01.952Z,1010.37
2018-04-24T02:02:01.973Z,1010.35
2018-04-24T02:03:01.995Z,1010.34
2018-04-24T02:04:02.017Z,1010.3
2018-04-24T02:05:02.042Z,1010.29
2018-04-24T02:06:02.059Z,1010.33
2018-04-24T02:07:02.081Z,1010.3
2018-04-24T02:08:02.101Z,1010.27
2018-04-24T02:09:02.124Z,1010.31
2018-04-24T02:10:02.145Z,1010.31
2018-04-24T02:11:02.167Z,1010.3
2018-04-24T02:12:02.188Z,1010.29
2018-04-24T02:13:02.209Z,1010.27
2018-04-24T02:15:02.252Z,1010.24
2018-04-24T02:16:02.276Z,1010.29
2018-04-24T02:17:02.295Z,1010.27
2018-04-24T02:18:02.316Z,1010.3
2018-04-24T02:19:02.337Z,1010.37
2018-04-24T02:20:02.359Z,1010.37
2018-04-24T02:21:02.381Z,1010.37
2018-04-24T02:22:02.402Z,1010.37
2018-04-24T02:23:02.423Z,1010.38
2018-04-24T02:24:02.449Z,1010.42
2018-04-24T02:25:02.498Z,1010.44
2018-04-24T02:26:02.487Z,1010.48
2018-04-24T02:27:02.508Z,1010.47
2018-04-24T02:28:02.530Z,1010.43
2018-04-24T02:29:02.557Z,1010.44
2018-04-24T02:31:02.593Z,1010.43
2018-04-24T02:32:02.616Z,1010.38
2018-04-24T02:33:02.639Z,1010.35
2018-04-24T02:34:02.659Z,1010.38
2018-04-24T02:35:02.679Z,1010.35
2018-04-24T02:36:02.702Z,1010.39
2018-04-24T02:37:02.723Z,1010.38
2018-04-24T02:38:02.747Z,1010.42
2018-04-24T02:39:02.765Z,1010.4
2018-04-24T02:40:02.786Z,1010.41
2018-04-24T02:41:02.808Z,1010.47
2018-04-24T02:42:02.828Z,1010.46
2018-04-24T02:43:02.850Z,1010.49
2018-04-24T02:44:02.872Z,1010.5
2018-04-24T02:45:02.892Z,1010.51
2018-04-24T02:47:02.939Z,1010.58
2018-04-24T02:48:02.958Z,1010.58
2018-04-24T02:49:02.977Z,1010.58
2018-04-24T02:50:03.001Z,1010.51
2018-04-24T02:51:03.021Z,1010.47
2018-04-24T02:52:03.041Z,1010.43
2018-04-24T02:53:03.063Z,1010.45
2018-04-24T02:54:03.084Z,1010.43
2018-04-24T02:55:03.104Z,1010.46
2018-04-24T02:56:03.127Z,1010.45
2018-04-24T02:57:03.147Z,1010.47
2018-04-24T02:58:03.172Z,1010.47
2018-04-24T02:59:03.191Z,1010.44
2018-04-24T03:00:03.212Z,1010.44
2018-04-24T03:02:03.255Z,1010.44
2018-04-24T03:03:03.275Z,1010.46
2018-04-24T03:04:03.297Z,1010.51
2018-04-24T03:05:03.321Z,1010.5
2018-04-24T03:06:03.340Z,1010.42
2018-04-24T03:07:03.371Z,1010.42
2018-04-24T03:08:03.383Z,1010.4
2018-04-24T03:09:03.403Z,1010.41
2018-04-24T03:10:03.424Z,1010.37
2018-04-24T03:11:03.546Z,1010.36
2018-04-24T03:12:03.467Z,1010.38
2018-04-24T03:13:03.489Z,1010.39
2018-04-24T03:14:03.508Z,1010.32
2018-04-24T03:15:03.530Z,1010.28
2018-04-24T03:16:03.551Z,1010.25
2018-04-24T03:17:03.572Z,1010.23
2018-04-24T03:18:03.596Z,1010.25
2018-04-24T03:19:03.614Z,1010.28
2018-04-24T03:20:03.636Z,1010.24
2018-04-24T03:21:03.658Z,1010.19
2018-04-24T03:22:03.677Z,1010.19
2018-04-24T03:23:03.700Z,1010.14
2018-04-24T03:24:03.724Z,1010.17
2018-04-24T03:25:03.750Z,1010.12
2018-04-24T03:26:03.762Z,1010.07
2018-04-24T03:27:03.784Z,1010.07
2018-04-24T03:28:03.805Z,1010.03
2018-04-24T03:29:03.828Z,1010.02
2018-04-24T03:30:03.848Z,1010.03
2018-04-24T03:31:03.869Z,1010.06
2018-04-24T03:32:03.889Z,1010.03
2018-04-24T03:34:03.932Z,1010.03
2018-04-24T03:35:04.009Z,1009.96
2018-04-24T03:36:03.973Z,1009.96
2018-04-24T03:37:03.994Z,1009.98
2018-04-24T03:38:04.016Z,1009.88
2018-04-24T03:39:04.041Z,1009.92
2018-04-24T03:40:04.065Z,1009.9
2018-04-24T03:41:04.078Z,1009.89
2018-04-24T03:42:04.138Z,1009.92
2018-04-24T03:43:04.120Z,1009.96
2018-04-24T03:44:04.144Z,1009.96
2018-04-24T03:45:04.163Z,1009.98
2018-04-24T03:46:04.183Z,1010.01
2018-04-24T03:47:04.203Z,1010.03
2018-04-24T03:48:04.225Z,1010.03
2018-04-24T03:50:04.267Z,1010.01
2018-04-24T03:51:04.290Z,1009.99
2018-04-24T03:52:04.311Z,1010.03
2018-04-24T03:53:04.329Z,1010.05
2018-04-24T03:54:04.349Z,1010.03
2018-04-24T03:55:04.370Z,1010.05
2018-04-24T03:56:04.393Z,1010.07
2018-04-24T03:57:04.416Z,1010.05
2018-04-24T03:58:04.432Z,1010.08
2018-04-24T03:59:04.454Z,1010.09
2018-04-24T04:00:04.475Z,1010.09
2018-04-24T04:01:04.496Z,1010.1
2018-04-24T04:02:04.518Z,1010.15
2018-04-24T04:03:04.540Z,1010.15
2018-04-24T04:04:04.558Z,1010.1
2018-04-24T04:06:04.599Z,1010.11
2018-04-24T04:07:04.620Z,1010.1
2018-04-24T04:08:04.642Z,1010.09
2018-04-24T04:09:04.662Z,1010.09
2018-04-24T04:10:04.683Z,1010.1
2018-04-24T04:11:04.707Z,1010.11
2018-04-24T04:12:04.725Z,1010.07
2018-04-24T04:13:04.745Z,1010.12
2018-04-24T04:14:04.765Z,1010.06
2018-04-24T04:15:04.789Z,1010.09
2018-04-24T04:16:04.807Z,1010.08
2018-04-24T04:17:04.828Z,1010.1
2018-04-24T04:18:04.851Z,1010.07
2018-04-24T04:19:04.871Z,1010.03
2018-04-24T04:20:04.890Z,1010.01
2018-04-24T04:22:04.933Z,1010.1
2018-04-24T04:23:04.953Z,1010.07
2018-04-24T04:24:04.976Z,1010.04
2018-04-24T04:25:04.996Z,1010.03
2018-04-24T04:26:05.017Z,1010.06
2018-04-24T04:27:05.090Z,1009.99
2018-04-24T04:28:05.060Z,1010.01
2018-04-24T04:29:05.079Z,1010.01
2018-04-24T04:30:05.101Z,1009.99
2018-04-24T04:31:05.124Z,1010.04
2018-04-24T04:32:05.142Z,1010.05
2018-04-24T04:33:05.163Z,1010.04
2018-04-24T04:34:05.185Z,1010.04
2018-04-24T04:35:05.206Z,1010.01
2018-04-24T04:37:05.349Z,1010.06
2018-04-24T04:38:05.269Z,1010.05
2018-04-24T04:39:05.292Z,1010.08
2018-04-24T04:40:05.362Z,1010.09
2018-04-24T04:41:05.338Z,1010.11
2018-04-24T04:42:05.353Z,1010.05
2018-04-24T04:43:05.375Z,1010.04
2018-04-24T04:44:05.397Z,1009.99
2018-04-24T04:45:05.420Z,1009.95
2018-04-24T04:46:05.443Z,1009.94
2018-04-24T04:47:05.467Z,1009.9
2018-04-24T04:48:05.480Z,1009.92
2018-04-24T04:49:05.508Z,1009.91
2018-04-24T04:50:05.524Z,1009.89
2018-04-24T04:51:05.544Z,1009.87
2018-04-24T04:52:05.566Z,1009.84
2018-04-24T04:53:05.585Z,1009.84
2018-04-24T04:54:05.609Z,1009.8
2018-04-24T04:55:05.629Z,1009.86
2018-04-24T04:56:05.730Z,1009.91
2018-04-24T04:57:05.670Z,1009.94
2018-04-24T04:58:05.692Z,1009.94
2018-04-24T04:59:05.713Z,1009.9
2018-04-24T05:00:05.735Z,1009.93
2018-04-24T05:01:05.757Z,1009.89
2018-04-24T05:02:05.778Z,1009.84
2018-04-24T05:03:05.807Z,1009.86
2018-04-24T05:04:05.820Z,1009.81
2018-04-24T05:05:05.842Z,1009.76
2018-04-24T05:06:05.863Z,1009.82
2018-04-24T05:07:05.886Z,1009.82
2018-04-24T05:09:05.932Z,1009.91
2018-04-24T05:10:05.951Z,1009.97
2018-04-24T05:11:05.971Z,1009.92
2018-04-24T05:12:06.082Z,1009.96
2018-04-24T05:13:06.016Z,1009.92
2018-04-24T05:14:06.040Z,1009.89
2018-04-24T05:15:06.058Z,1009.84
2018-04-24T05:16:06.079Z,1009.84
2018-04-24T05:17:06.103Z,1009.85
2018-04-24T05:18:06.123Z,1009.85
2018-04-24T05:19:06.145Z,1009.86
2018-04-24T05:20:06.236Z,1009.84
2018-04-24T05:21:06.258Z,1009.84
2018-04-24T05:22:06.214Z,1009.81
2018-04-24T05:23:06.233Z,1009.87
2018-04-24T05:25:06.276Z,1009.74
2018-04-24T05:26:06.297Z,1009.75
2018-04-24T05:27:06.319Z,1009.78
2018-04-24T05:28:06.341Z,1009.77
2018-04-24T05:29:06.362Z,1009.73
2018-04-24T05:30:06.384Z,1009.75
2018-04-24T05:31:06.406Z,1009.76
2018-04-24T05:32:06.431Z,1009.77
2018-04-24T05:33:06.448Z,1009.78
2018-04-24T05:34:06.471Z,1009.72
2018-04-24T05:35:06.493Z,1009.73
2018-04-24T05:36:06.514Z,1009.78
2018-04-24T05:37:06.535Z,1009.74
2018-04-24T05:38:06.557Z,1009.81
2018-04-24T05:39:06.579Z,1009.83
2018-04-24T05:41:06.621Z,1009.92
2018-04-24T05:42:06.694Z,1009.93
2018-04-24T05:43:06.666Z,1009.91
2018-04-24T05:44:06.686Z,1009.91
2018-04-24T05:45:06.709Z,1009.84
2018-04-24T05:46:06.730Z,1009.81
2018-04-24T05:47:06.752Z,1009.77
2018-04-24T05:48:06.773Z,1009.81
2018-04-24T05:49:06.795Z,1009.83
2018-04-24T05:50:06.816Z,1009.83
2018-04-24T05:51:06.838Z,1009.85
2018-04-24T05:52:06.860Z,1009.86
2018-04-24T05:53:07.029Z,1009.86
2018-04-24T05:54:06.903Z,1009.88
2018-04-24T05:55:07.007Z,1009.86
2018-04-24T05:57:06.975Z,1009.86
2018-04-24T05:58:06.991Z,1009.81
2018-04-24T05:59:07.013Z,1009.78
2018-04-24T06:00:07.035Z,1009.83
2018-04-24T06:01:07.058Z,1009.83
2018-04-24T06:02:07.077Z,1009.8
2018-04-24T06:03:07.117Z,1009.84
2018-04-24T06:04:07.122Z,1009.8
2018-04-24T06:05:07.145Z,1009.81
2018-04-24T06:06:07.166Z,1009.76
2018-04-24T06:07:07.188Z,1009.76
2018-04-24T06:08:07.210Z,1009.74
2018-04-24T06:09:07.233Z,1009.72
2018-04-24T06:10:07.256Z,1009.69
2018-04-24T06:12:07.300Z,1009.58
2018-04-24T06:13:07.324Z,1009.54
2018-04-24T06:14:07.343Z,1009.55
2018-04-24T06:15:07.444Z,1009.53
2018-04-24T06:16:07.388Z,1009.58
2018-04-24T06:17:07.412Z,1009.64
2018-04-24T06:18:07.432Z,1009.68
2018-04-24T06:19:07.456Z,1009.65
2018-04-24T06:20:07.532Z,1009.65
2018-04-24T06:21:07.499Z,1009.62
2018-04-24T06:22:07.523Z,1009.64
2018-04-24T06:23:07.543Z,1009.69
2018-04-24T06:24:07.566Z,1009.72
2018-04-24T06:25:07.588Z,1009.77
2018-04-24T06:26:07.610Z,1009.82
2018-04-24T06:27:07.632Z,1009.82
2018-04-24T06:28:07.716Z,1009.83
2018-04-24T06:29:07.676Z,1009.87
2018-04-24T06:30:07.700Z,1009.89
2018-04-24T06:31:07.721Z,1009.95
2018-04-24T06:32:07.746Z,1009.98
2018-04-24T06:33:07.767Z,1009.86
2018-04-24T06:34:07.789Z,1009.87
2018-04-24T06:35:07.811Z,1009.95
2018-04-24T06:36:07.836Z,1010.04
2018-04-24T06:37:07.857Z,1010.02
2018-04-24T06:38:07.880Z,1010.05
2018-04-24T06:39:07.903Z,1010.2
2018-04-24T06:40:07.925Z,1010.09
2018-04-24T06:41:07.948Z,1010.06
2018-04-24T06:42:07.976Z,1010.14
2018-04-24T06:44:08.019Z,1010.03
2018-04-24T06:45:08.042Z,1010.1
2018-04-24T06:46:08.065Z,1010.01
2018-04-24T06:47:08.140Z,1009.97
2018-04-24T06:48:08.113Z,1009.83
2018-04-24T06:49:08.142Z,1009.84
2018-04-24T06:50:08.160Z,1009.81
2018-04-24T06:51:08.185Z,1009.85
2018-04-24T06:52:08.260Z,1009.93
2018-04-24T06:53:08.233Z,1009.96
2018-04-24T06:54:08.258Z,1010.04
2018-04-24T06:55:08.327Z,1010.17
2018-04-24T06:56:08.306Z,1010.11
2018-04-24T06:57:08.329Z,1010.29
2018-04-24T06:58:08.354Z,1010.31
2018-04-24T07:00:08.404Z,1010.12
2018-04-24T07:01:08.427Z,1009.91
2018-04-24T07:02:08.451Z,1010.2
2018-04-24T07:03:08.476Z,1010.09
2018-04-24T07:04:08.511Z,1010.28
2018-04-24T07:05:08.526Z,1010.6
2018-04-24T07:06:08.555Z,1010.65
2018-04-24T07:07:08.576Z,1010.51
2018-04-24T07:08:08.602Z,1010.69
2018-04-24T07:09:08.628Z,1010.64
2018-04-24T07:10:08.654Z,1010.62
2018-04-24T07:11:08.680Z,1010.66
2018-04-24T07:12:08.705Z,1010.66
2018-04-24T07:13:08.732Z,1010.65
2018-04-24T07:14:08.760Z,1010.61
2018-04-24T07:16:08.814Z,1010.5
2018-04-24T07:17:08.842Z,1010.56
2018-04-24T07:18:08.870Z,1010.5
2018-04-24T07:19:08.948Z,1010.43
2018-04-24T07:20:08.926Z,1010.33
2018-04-24T07:21:08.962Z,1010.25
2018-04-24T07:22:09.072Z,1010.25
2018-04-24T07:23:09.020Z,1010.26
2018-04-24T07:24:09.044Z,1010.27
2018-04-24T07:25:09.074Z,1010.14
2018-04-24T07:26:09.103Z,1010.16
2018-04-24T07:27:09.193Z,1010.17
2018-04-24T07:28:09.168Z,1010.05
2018-04-24T07:29:09.194Z,1010.1
2018-04-24T07:30:09.225Z,1010
2018-04-24T07:32:09.285Z,1009.91
2018-04-24T07:33:09.315Z,1010
2018-04-24T07:34:09.346Z,1009.94
2018-04-24T07:35:09.375Z,1009.97
2018-04-24T07:36:09.406Z,1009.94
2018-04-24T07:37:09.436Z,1010.06
2018-04-24T07:38:09.467Z,1009.94
2018-04-24T07:39:09.497Z,1009.99
2018-04-24T07:40:09.528Z,1009.97
2018-04-24T07:41:09.573Z,1009.94
2018-04-24T07:42:09.592Z,1009.96
2018-04-24T07:43:09.619Z,1009.95
2018-04-24T07:44:09.650Z,1009.92
2018-04-24T07:45:09.681Z,1009.92
2018-04-24T07:47:09.743Z,1009.97
2018-04-24T07:48:09.773Z,1010.01
2018-04-24T07:49:09.804Z,1009.88
2018-04-24T07:50:09.835Z,1009.77
2018-04-24T07:51:09.866Z,1009.9
2018-04-24T07:52:09.897Z,1009.76
2018-04-24T07:53:09.932Z,1009.85
2018-04-24T07:54:09.958Z,1009.83
2018-04-24T07:55:09.989Z,1009.78
2018-04-24T07:56:10.019Z,1009.76
2018-04-24T07:57:10.049Z,1009.77
2018-04-24T07:58:10.081Z,1009.74
2018-04-24T07:59:10.110Z,1009.77
2018-04-24T08:00:10.143Z,1009.77
2018-04-24T08:01:10.173Z,1009.71
2018-04-24T08:02:10.204Z,1009.68
2018-04-24T08:03:10.235Z,1009.64
2018-04-24T08:04:10.266Z,1009.63
2018-04-24T08:05:10.298Z,1009.49
2018-04-24T08:06:10.328Z,1009.51
2018-04-24T08:07:10.361Z,1009.46
2018-04-24T08:08:10.447Z,1009.45
2018-04-24T08:09:10.422Z,1009.51
2018-04-24T08:10:10.452Z,1009.47
2018-04-24T08:11:10.485Z,1009.53
2018-04-24T08:12:10.516Z,1009.39
2018-04-24T08:13:10.548Z,1009.53
2018-04-24T08:14:10.582Z,1009.47
2018-04-24T08:15:10.610Z,1009.46
2018-04-24T08:16:10.641Z,1009.52
2018-04-24T08:17:10.672Z,1009.47
2018-04-24T08:19:10.734Z,1009.55
2018-04-24T08:20:10.765Z,1009.49
2018-04-24T08:21:10.795Z,1009.57
2018-04-24T08:22:10.826Z,1009.57
2018-04-24T08:23:10.859Z,1009.53
2018-04-24T08:24:10.889Z,1009.43
2018-04-24T08:25:10.924Z,1009.4
2018-04-24T08:26:10.959Z,1009.5
2018-04-24T08:27:10.982Z,1009.45
2018-04-24T08:28:11.021Z,1009.48
2018-04-24T08:29:11.044Z,1009.42
2018-04-24T08:30:11.074Z,1009.56
2018-04-24T08:31:11.105Z,1009.55
2018-04-24T08:32:11.136Z,1009.51
2018-04-24T08:33:11.167Z,1009.54
2018-04-24T08:35:11.229Z,1009.41
2018-04-24T08:36:11.258Z,1009.35
2018-04-24T08:37:11.289Z,1009.25
2018-04-24T08:38:11.320Z,1009.24
2018-04-24T08:39:11.350Z,1009.2
2018-04-24T08:40:11.384Z,1009.31
2018-04-24T08:41:11.412Z,1009.19
2018-04-24T08:42:11.443Z,1009.25
2018-04-24T08:43:11.473Z,1009.24
2018-04-24T08:44:11.504Z,1009.25
2018-04-24T08:45:11.534Z,1009.27
2018-04-24T08:46:11.565Z,1009.22
2018-04-24T08:47:11.595Z,1009.18
2018-04-24T08:48:11.632Z,1009.21
2018-04-24T08:49:11.661Z,1009.14
2018-04-24T08:51:11.716Z,1009.08
2018-04-24T08:52:11.747Z,1009.04
2018-04-24T08:53:11.777Z,1009.08
2018-04-24T08:54:11.807Z,1009.05
2018-04-24T08:55:11.837Z,1008.99
2018-04-24T08:56:11.869Z,1008.93
2018-04-24T08:57:11.896Z,1008.95
2018-04-24T08:58:11.930Z,1008.96
2018-04-24T08:59:12.056Z,1009.04
2018-04-24T09:00:11.984Z,1009.13
2018-04-24T09:01:12.012Z,1009.06
2018-04-24T09:02:12.042Z,1009.1
2018-04-24T09:03:12.071Z,1009.17
2018-04-24T09:04:12.105Z,1009.17
2018-04-24T09:05:12.127Z,1009.22
2018-04-24T09:07:12.191Z,1009.21
2018-04-24T09:08:12.214Z,1009.15
2018-04-24T09:09:12.241Z,1009.18
2018-04-24T09:10:12.270Z,1009.11
2018-04-24T09:11:12.297Z,1009.09
2018-04-24T09:12:12.325Z,1009.11
2018-04-24T09:13:12.353Z,1009.09
2018-04-24T09:14:12.382Z,1008.98
2018-04-24T09:15:12.410Z,1008.97
2018-04-24T09:16:12.437Z,1008.94
2018-04-24T09:17:12.466Z,1009.01
2018-04-24T09:18:12.504Z,1009.03
2018-04-24T09:19:12.521Z,1009.03
2018-04-24T09:20:12.549Z,1008.95
2018-04-24T09:22:12.603Z,1008.95
2018-04-24T09:23:12.629Z,1008.91
2018-04-24T09:24:12.657Z,1008.99
2018-04-24T09:25:12.684Z,1008.91
2018-04-24T09:26:12.711Z,1008.98
2018-04-24T09:27:12.821Z,1008.96
2018-04-24T09:28:12.764Z,1008.95
2018-04-24T09:29:12.795Z,1008.96
2018-04-24T09:30:12.821Z,1008.85
2018-04-24T09:31:12.845Z,1008.86
2018-04-24T09:32:12.871Z,1008.81
2018-04-24T09:33:12.900Z,1008.86
2018-04-24T09:34:12.925Z,1008.83
2018-04-24T09:35:12.952Z,1008.83
2018-04-24T09:36:12.979Z,1008.84
2018-04-24T09:37:13.006Z,1008.82
2018-04-24T09:38:13.033Z,1008.83
2018-04-24T09:39:13.063Z,1008.83
2018-04-24T09:40:13.087Z,1008.77
2018-04-24T09:41:13.112Z,1008.84
2018-04-24T09:42:13.140Z,1008.81
2018-04-24T09:43:13.177Z,1008.85
2018-04-24T09:44:13.193Z,1008.79
2018-04-24T09:45:13.222Z,1008.81
2018-04-24T09:46:13.247Z,1008.74
2018-04-24T09:47:13.273Z,1008.73
2018-04-24T09:48:13.300Z,1008.79
2018-04-24T09:49:13.325Z,1008.75
2018-04-24T09:50:13.359Z,1008.74
2018-04-24T09:51:13.431Z,1008.79
2018-04-24T09:52:13.403Z,1008.86
2018-04-24T09:54:13.456Z,1008.88
2018-04-24T09:55:13.487Z,1008.9
2018-04-24T09:56:13.509Z,1008.94
2018-04-24T09:57:13.534Z,1008.87
2018-04-24T09:58:13.564Z,1008.92
2018-04-24T09:59:13.585Z,1008.86
2018-04-24T10:00:13.613Z,1008.85
2018-04-24T10:01:13.643Z,1008.79
2018-04-24T10:02:13.734Z,1008.88
2018-04-24T10:03:13.689Z,1008.89
2018-04-24T10:04:13.718Z,1008.84
2018-04-24T10:05:13.743Z,1008.88
2018-04-24T10:06:13.768Z,1008.86
2018-04-24T10:07:13.794Z,1008.91
2018-04-24T10:08:13.819Z,1008.93
2018-04-24T10:10:13.873Z,1008.94
2018-04-24T10:11:13.898Z,1008.95
2018-04-24T10:12:13.925Z,1008.92
2018-04-24T10:13:13.951Z,1009.03
2018-04-24T10:14:13.980Z,1009
2018-04-24T10:15:14.008Z,1009.02
2018-04-24T10:16:14.031Z,1008.98
2018-04-24T10:17:14.055Z,1008.97
2018-04-24T10:18:14.082Z,1009.15
2018-04-24T10:19:14.110Z,1009.09
2018-04-24T10:20:14.134Z,1009.03
2018-04-24T10:21:14.161Z,1008.99
2018-04-24T10:22:14.187Z,1009.05
2018-04-24T10:23:14.212Z,1009.08
2018-04-24T10:24:14.239Z,1009.06
2018-04-24T10:26:14.290Z,1009.11
2018-04-24T10:27:14.387Z,1009.12
2018-04-24T10:28:14.342Z,1009.14
2018-04-24T10:29:14.368Z,1009.12
2018-04-24T10:30:14.395Z,1009.17
2018-04-24T10:31:14.420Z,1009.1
2018-04-24T10:32:14.446Z,1009.23
2018-04-24T10:33:14.471Z,1009.29
2018-04-24T10:34:14.498Z,1009.2
2018-04-24T10:35:14.523Z,1009.16
2018-04-24T10:36:14.548Z,1009.19
2018-04-24T10:37:14.574Z,1009.25
2018-04-24T10:38:14.599Z,1009.26
2018-04-24T10:39:14.626Z,1009.27
2018-04-24T10:40:14.650Z,1009.23
2018-04-24T10:42:14.704Z,1009.18
2018-04-24T10:43:14.728Z,1009.19
2018-04-24T10:44:14.753Z,1009.16
2018-04-24T10:45:14.779Z,1009.27
2018-04-24T10:46:14.805Z,1009.14
2018-04-24T10:47:14.829Z,1009.13
2018-04-24T10:48:14.854Z,1009.12
2018-04-24T10:49:14.881Z,1009.16
2018-04-24T10:50:14.907Z,1009.11
2018-04-24T10:51:14.933Z,1009.11
2018-04-24T10:52:14.958Z,1009.06
2018-04-24T10:53:14.984Z,1009.06
2018-04-24T10:54:15.010Z,1009.07
2018-04-24T10:55:15.036Z,1009.02
2018-04-24T10:57:15.088Z,1009.05
2018-04-24T10:58:15.112Z,1009.09
2018-04-24T10:59:15.169Z,1009.06
2018-04-24T11:00:15.165Z,1009.14
2018-04-24T11:01:15.192Z,1009.12
2018-04-24T11:02:15.219Z,1009.16
2018-04-24T11:03:15.242Z,1009.15
2018-04-24T11:04:15.267Z,1009.11
2018-04-24T11:05:15.292Z,1009.08
2018-04-24T11:06:15.319Z,1009.06
2018-04-24T11:07:15.347Z,1009.08
2018-04-24T11:08:15.369Z,1009.07
2018-04-24T11:09:16.397Z,1009.09
2018-04-24T11:10:15.420Z,1009.13
2018-04-24T11:11:15.446Z,1009.21
2018-04-24T11:12:15.472Z,1009.26
2018-04-24T11:13:15.497Z,1009.29
2018-04-24T11:14:15.522Z,1009.25
2018-04-24T11:15:15.549Z,1009.3
2018-04-24T11:16:15.573Z,1009.25
2018-04-24T11:17:15.600Z,1009.26
2018-04-24T11:18:15.624Z,1009.29
2018-04-24T11:19:15.650Z,1009.28
2018-04-24T11:20:15.687Z,1009.35
2018-04-24T11:21:15.724Z,1009.33
2018-04-24T11:22:15.726Z,1009.36
2018-04-24T11:23:15.753Z,1009.29
2018-04-24T11:24:15.777Z,1009.3
2018-04-24T11:25:15.803Z,1009.26
2018-04-24T11:26:15.834Z,1009.24
2018-04-24T11:27:15.857Z,1009.27
2018-04-24T11:29:15.905Z,1009.26
2018-04-24T11:30:15.969Z,1009.32
2018-04-24T11:31:15.963Z,1009.31
2018-04-24T11:32:15.981Z,1009.28
2018-04-24T11:33:16.007Z,1009.32
2018-04-24T11:34:16.111Z,1009.32
2018-04-24T11:35:16.059Z,1009.37
2018-04-24T11:36:16.082Z,1009.3
2018-04-24T11:37:16.108Z,1009.28
2018-04-24T11:38:16.131Z,1009.3
2018-04-24T11:39:16.161Z,1009.25
2018-04-24T11:40:16.182Z,1009.24
2018-04-24T11:41:16.247Z,1009.24
2018-04-24T11:42:16.236Z,1009.25
2018-04-24T11:43:16.258Z,1009.26
2018-04-24T11:45:16.309Z,1009.28
2018-04-24T11:46:16.333Z,1009.25
2018-04-24T11:47:16.358Z,1009.3
2018-04-24T11:48:16.383Z,1009.31
2018-04-24T11:49:16.410Z,1009.29
2018-04-24T11:50:16.433Z,1009.28
2018-04-24T11:51:16.458Z,1009.37
2018-04-24T11:52:16.647Z,1009.27
2018-04-24T11:53:16.513Z,1009.29
2018-04-24T11:54:16.533Z,1009.2
2018-04-24T11:55:16.559Z,1009.22
2018-04-24T11:56:16.585Z,1009.27
2018-04-24T11:57:16.610Z,1009.24
2018-04-24T11:58:16.634Z,1009.25
2018-04-24T11:59:16.659Z,1009.24
2018-04-24T12:01:16.710Z,1009.23
2018-04-24T12:02:16.734Z,1009.25
2018-04-24T12:03:16.761Z,1009.32
2018-04-24T12:04:16.785Z,1009.16
2018-04-24T12:05:16.811Z,1009.26
2018-04-24T12:06:16.836Z,1009.29
2018-04-24T12:07:16.862Z,1009.2
2018-04-24T12:08:16.886Z,1009.27
2018-04-24T12:09:16.911Z,1009.32
2018-04-24T12:10:16.937Z,1009.28
2018-04-24T12:11:16.962Z,1009.29
2018-04-24T12:12:16.986Z,1009.35
2018-04-24T12:13:17.013Z,1009.27
2018-04-24T12:14:17.038Z,1009.31
2018-04-24T12:15:17.063Z,1009.32
2018-04-24T12:17:17.116Z,1009.38
2018-04-24T12:18:17.139Z,1009.3
2018-04-24T12:19:17.170Z,1009.26
2018-04-24T12:20:17.189Z,1009.26
2018-04-24T12:21:17.214Z,1009.22
2018-04-24T12:22:17.238Z,1009.2
2018-04-24T12:23:17.264Z,1009.17
2018-04-24T12:24:17.295Z,1009.23
2018-04-24T12:25:17.315Z,1009.21
2018-04-24T12:26:17.339Z,1009.26
2018-04-24T12:27:17.364Z,1009.26
2018-04-24T12:28:17.389Z,1009.22
2018-04-24T12:29:17.415Z,1009.22
2018-04-24T12:30:17.440Z,1009.23
2018-04-24T12:32:17.495Z,1009.3
2018-04-24T12:33:17.516Z,1009.25
2018-04-24T12:34:17.542Z,1009.21
2018-04-24T12:35:17.568Z,1009.26
2018-04-24T12:36:17.592Z,1009.24
2018-04-24T12:37:17.617Z,1009.19
2018-04-24T12:38:17.642Z,1009.23
2018-04-24T12:39:17.668Z,1009.28
2018-04-24T12:40:17.692Z,1009.21
2018-04-24T12:41:17.718Z,1009.22
2018-04-24T12:42:17.743Z,1009.3
2018-04-24T12:43:17.768Z,1009.27
2018-04-24T12:44:17.792Z,1009.27
2018-04-24T12:45:17.842Z,1009.29
2018-04-24T12:46:17.844Z,1009.33
2018-04-24T12:47:17.868Z,1009.26
2018-04-24T12:48:17.892Z,1009.39
2018-04-24T12:49:17.917Z,1009.34